25 Jun 2018 19:36 CDT 2018176+19:36 CDT

Overview Datums Bench Marks Data Query Site Visit Daily QC Messages Attributes

043: Nueces Delta 3

27° 53' 1" N   97° 31' 59" W
NUDE3
The Coastal Bend Bays & Estuaries Program Coastal Bend Bays and Estuaries Program

Station Information

Nueces Delta 3
Nueces Delta 3
more pictures
 
Station Name:Nueces Delta 3
DNR ID:043
Location:27° 53' 1" N, 97° 31' 59" W

Water Level Forecasts

Latest Observations

Series Metric English Marine Observed at
Water Temperature 29.6 °C 85.3 °F 85.3 °F Jun 25 14:24 CDT
00h07m ago
Salinity 12.400 psu 12.400 psu 12.400 psu Jun 25 14:24 CDT
00h07m ago

Maps

Nueces Delta 3
All Stations in Area
Entire Network
 

Recent Observations

Date/Time Water
Temp (°F)
Sal (psu)
Jun 25 14:00 CDT 84.9 12.500
Jun 25 13:00 CDT 84.0 12.600
Jun 25 12:00 CDT 83.3 12.500
Jun 25 11:00 CDT 82.2 12.400
Jun 25 10:00 CDT 81.9 12.000
Jun 25 09:00 CDT 81.1 12.200
Jun 25 08:00 CDT 81.0 11.900
Jun 25 07:00 CDT 81.1 12.000
Jun 25 06:00 CDT 81.5 12.000
Jun 25 05:00 CDT 82.0 11.700
Jun 25 04:00 CDT 82.6 11.300
Jun 25 03:00 CDT 82.9 11.100
Jun 25 02:00 CDT 83.5 10.900
Jun 25 01:00 CDT 84.0 10.900
Jun 25 00:00 CDT 84.7 11.000
Jun 24 23:00 CDT 85.6 11.000
Jun 24 22:00 CDT 86.7 11.300
Jun 24 21:00 CDT 87.6 11.600
Jun 24 20:00 CDT 88.7 11.800
Jun 24 19:00 CDT 89.2 11.800
Jun 24 18:00 CDT 89.4 12.000
Jun 24 17:00 CDT 88.7 11.900
Jun 24 16:00 CDT 88.2 11.800
Jun 24 15:00 CDT 87.6 11.800
Jun 24 14:00 CDT 86.9 11.600

Historical Data Availability